createdAt,value
2022-11-27T00:01:54.845Z,98.90
2022-11-27T00:04:57.818Z,100.00
2022-11-27T00:08:00.606Z,99.04
2022-11-27T00:11:08.413Z,99.28
2022-11-27T00:14:12.861Z,98.15
2022-11-27T00:17:16.977Z,97.63
2022-11-27T00:20:19.599Z,96.93
2022-11-27T00:23:22.324Z,96.71
2022-11-27T00:26:25.529Z,97.40
2022-11-27T00:29:29.241Z,97.64
2022-11-27T00:32:33.247Z,97.20
2022-11-27T00:35:36.015Z,97.25
2022-11-27T00:38:39.457Z,95.66
2022-11-27T00:41:42.115Z,95.55
2022-11-27T00:44:47.926Z,94.93
2022-11-27T00:47:51.906Z,94.44
2022-11-27T00:51:00.411Z,94.01
2022-11-27T00:54:03.295Z,93.86
2022-11-27T00:57:06.473Z,94.29
2022-11-27T01:00:10.225Z,92.92
2022-11-27T01:03:14.200Z,92.90
2022-11-27T01:06:18.687Z,93.58
2022-11-27T01:09:21.404Z,93.11
2022-11-27T01:12:24.119Z,92.95
2022-11-27T01:15:26.768Z,92.47
2022-11-27T01:18:31.225Z,91.35
2022-11-27T01:21:43.368Z,90.83
2022-11-27T01:24:46.253Z,91.10
2022-11-27T01:27:48.971Z,91.75
2022-11-27T01:30:52.552Z,91.98
2022-11-27T01:33:58.747Z,92.35
2022-11-27T01:37:01.421Z,93.32
2022-11-27T01:40:04.436Z,93.00
2022-11-27T01:43:07.295Z,92.05
2022-11-27T01:46:29.675Z,92.32
2022-11-27T01:49:37.830Z,91.36
2022-11-27T01:52:44.381Z,91.16
2022-11-27T01:55:52.348Z,90.98
2022-11-27T01:58:56.664Z,90.72
2022-11-27T02:01:59.477Z,91.03
2022-11-27T02:05:03.704Z,90.93
2022-11-27T02:08:10.316Z,91.36
2022-11-27T02:11:18.883Z,91.67
2022-11-27T02:14:31.812Z,90.83
2022-11-27T02:17:44.436Z,90.99
2022-11-27T02:20:56.305Z,90.46
2022-11-27T02:24:39.132Z,91.26
2022-11-27T02:28:04.175Z,91.72
2022-11-27T02:31:15.596Z,90.70
2022-11-27T02:34:25.847Z,90.71
2022-11-27T02:37:35.552Z,90.31
2022-11-27T02:40:43.808Z,90.07
2022-11-27T02:43:50.660Z,90.00
2022-11-27T02:46:56.147Z,90.65
2022-11-27T02:50:00.667Z,91.17
2022-11-27T02:53:08.988Z,90.30
2022-11-27T02:56:16.313Z,91.13
2022-11-27T02:59:20.938Z,89.98
2022-11-27T03:02:31.463Z,90.25
2022-11-27T03:05:38.520Z,89.84
2022-11-27T03:08:49.940Z,90.25
2022-11-27T03:11:53.007Z,90.04
2022-11-27T03:14:55.860Z,90.08
2022-11-27T03:18:06.527Z,89.77
2022-11-27T03:21:20.394Z,89.65
2022-11-27T03:24:23.227Z,89.52
2022-11-27T03:27:33.451Z,89.54
2022-11-27T03:30:36.219Z,89.73
2022-11-27T03:33:40.677Z,89.85
2022-11-27T03:36:43.375Z,89.49
2022-11-27T03:39:46.157Z,88.87
2022-11-27T03:43:00.087Z,89.29
2022-11-27T03:46:11.411Z,89.00
2022-11-27T03:49:25.471Z,89.12
2022-11-27T03:52:36.804Z,89.12
2022-11-27T03:55:49.300Z,88.70
2022-11-27T03:58:56.068Z,88.48
2022-11-27T04:01:58.864Z,88.07
2022-11-27T04:05:02.872Z,88.92
2022-11-27T04:08:06.079Z,88.37
2022-11-27T04:11:09.493Z,88.58
2022-11-27T04:14:12.100Z,88.72
2022-11-27T04:17:14.861Z,88.68
2022-11-27T04:20:19.568Z,88.66
2022-11-27T04:23:22.235Z,88.32
2022-11-27T04:26:24.929Z,88.38
2022-11-27T04:29:27.568Z,88.52
2022-11-27T04:32:30.237Z,89.33
2022-11-27T04:35:34.299Z,90.16
2022-11-27T04:38:36.948Z,90.64
2022-11-27T04:41:39.978Z,90.13
2022-11-27T04:44:42.900Z,89.29
2022-11-27T04:47:45.944Z,89.38
2022-11-27T04:50:50.059Z,90.60
2022-11-27T04:53:52.678Z,90.72
2022-11-27T04:56:55.664Z,91.31
2022-11-27T04:59:58.379Z,91.59
2022-11-27T05:03:01.133Z,91.69
2022-11-27T05:06:05.483Z,90.00
2022-11-27T05:09:08.432Z,90.36
2022-11-27T05:12:11.328Z,90.66
2022-11-27T05:15:14.004Z,90.33
2022-11-27T05:18:16.659Z,90.70
2022-11-27T05:21:20.615Z,90.48
2022-11-27T05:24:25.581Z,90.83
2022-11-27T05:27:46.529Z,90.66
2022-11-27T05:30:58.819Z,90.23
2022-11-27T05:34:42.936Z,90.04
2022-11-27T05:38:01.233Z,89.39
2022-11-27T05:41:10.833Z,89.61
2022-11-27T05:44:43.984Z,89.18
2022-11-27T05:48:07.757Z,89.18
2022-11-27T05:51:34.027Z,89.33
2022-11-27T05:54:56.811Z,89.08
2022-11-27T05:58:22.043Z,89.06
2022-11-27T06:01:51.073Z,87.35
2022-11-27T06:05:25.382Z,88.03
2022-11-27T06:08:37.471Z,88.44
2022-11-27T06:12:03.929Z,88.68
2022-11-27T06:15:23.596Z,88.66
2022-11-27T06:19:13.297Z,88.89
2022-11-27T06:22:40.381Z,88.98
2022-11-27T06:29:44.706Z,89.12
2022-11-27T06:33:05.509Z,89.37
2022-11-27T06:36:28.772Z,88.93
2022-11-27T06:40:11.834Z,88.64
2022-11-27T06:43:55.676Z,88.42
2022-11-27T06:47:30.370Z,88.35
2022-11-27T06:51:02.087Z,89.12
2022-11-27T06:54:38.811Z,88.72
2022-11-27T06:58:26.494Z,88.92
2022-11-27T07:05:28.327Z,89.36
2022-11-27T07:13:02.694Z,89.51
2022-11-27T07:20:37.681Z,91.96
2022-11-27T07:28:15.990Z,92.12
2022-11-27T07:32:15.746Z,92.10
2022-11-27T07:36:01.462Z,92.47
2022-11-27T07:48:01.346Z,90.91
2022-11-27T07:59:26.094Z,91.88
2022-11-27T08:02:39.832Z,91.88
2022-11-27T08:05:59.489Z,92.41
2022-11-27T08:09:29.963Z,92.79
2022-11-27T08:12:44.337Z,92.32
2022-11-27T08:19:34.979Z,91.73
2022-11-27T08:22:43.378Z,91.45
2022-11-27T08:25:56.007Z,91.84
2022-11-27T08:29:02.894Z,91.84
2022-11-27T08:32:10.248Z,92.26
2022-11-27T08:35:16.616Z,92.23
2022-11-27T08:38:34.457Z,92.38
2022-11-27T08:41:47.597Z,91.78
2022-11-27T08:45:17.614Z,91.12
2022-11-27T08:52:40.333Z,90.50
2022-11-27T08:56:24.721Z,89.73
2022-11-27T09:00:11.047Z,89.92
2022-11-27T09:03:49.411Z,90.07
2022-11-27T09:07:28.428Z,89.26
2022-11-27T09:17:50.106Z,88.85
2022-11-27T09:21:06.182Z,88.20
2022-11-27T09:24:17.493Z,88.34
2022-11-27T09:27:28.798Z,88.05
2022-11-27T09:30:38.818Z,88.00
2022-11-27T09:33:52.004Z,87.80
2022-11-27T09:36:59.686Z,87.91
2022-11-27T09:40:13.213Z,87.77
2022-11-27T09:43:33.900Z,86.62
2022-11-27T09:46:47.091Z,84.18
2022-11-27T09:50:03.344Z,84.57
2022-11-27T09:53:22.006Z,84.47
2022-11-27T09:56:37.785Z,84.65
2022-11-27T09:59:54.256Z,84.32
2022-11-27T10:03:05.196Z,84.67
2022-11-27T10:06:29.510Z,84.72
2022-11-27T10:09:51.415Z,84.55
2022-11-27T10:13:10.138Z,84.58
2022-11-27T10:16:28.364Z,82.86
2022-11-27T10:19:53.964Z,82.60
2022-11-27T10:23:21.123Z,81.80
2022-11-27T10:26:35.348Z,81.87
2022-11-27T10:29:53.380Z,80.99
2022-11-27T10:33:09.173Z,81.17
2022-11-27T10:36:23.826Z,81.29
2022-11-27T10:39:47.662Z,80.47
2022-11-27T10:43:18.122Z,76.91
2022-11-27T10:46:34.488Z,75.31
2022-11-27T10:49:49.163Z,68.95
2022-11-27T10:53:07.784Z,70.24
2022-11-27T10:56:29.694Z,70.13
2022-11-27T10:59:41.331Z,70.60
2022-11-27T11:02:45.044Z,66.75
2022-11-27T11:09:29.802Z,57.88
2022-11-27T11:12:34.357Z,57.10
2022-11-27T11:15:51.611Z,59.46
2022-11-27T11:18:57.485Z,59.73
2022-11-27T11:22:19.079Z,55.05
2022-11-27T11:25:28.830Z,54.82
2022-11-27T11:28:44.850Z,54.08
2022-11-27T11:32:02.186Z,57.42
2022-11-27T11:35:12.177Z,60.34
2022-11-27T11:38:20.991Z,62.07
2022-11-27T11:41:26.008Z,62.93
2022-11-27T11:44:37.198Z,59.29
2022-11-27T11:47:46.276Z,56.62
2022-11-27T11:50:54.191Z,54.10
2022-11-27T11:54:04.381Z,53.13
2022-11-27T11:57:18.502Z,53.09
2022-11-27T12:00:30.163Z,56.65
2022-11-27T12:03:49.165Z,56.49
2022-11-27T12:07:00.427Z,57.68
2022-11-27T12:10:09.266Z,51.69
2022-11-27T12:13:30.282Z,47.28
2022-11-27T12:16:48.296Z,45.33
2022-11-27T12:20:14.345Z,42.30
2022-11-27T12:23:34.196Z,41.58
2022-11-27T12:26:55.520Z,41.65
2022-11-27T12:30:07.187Z,40.43
2022-11-27T12:33:54.543Z,38.72
2022-11-27T12:37:14.198Z,35.81
2022-11-27T12:40:39.430Z,33.50
2022-11-27T12:43:46.451Z,36.00
2022-11-27T12:46:55.721Z,39.47
2022-11-27T12:50:03.848Z,40.33
2022-11-27T12:53:23.124Z,39.66
2022-11-27T12:56:31.999Z,40.39
2022-11-27T12:59:39.955Z,42.38
2022-11-27T13:02:50.903Z,43.57
2022-11-27T13:05:59.097Z,44.45
2022-11-27T13:09:05.728Z,45.74
2022-11-27T13:12:09.930Z,46.87
2022-11-27T13:15:22.547Z,47.75
2022-11-27T13:18:33.632Z,48.73
2022-11-27T13:21:39.456Z,46.86
2022-11-27T13:24:43.956Z,43.97
2022-11-27T13:27:50.459Z,44.40
2022-11-27T13:30:55.496Z,45.09
2022-11-27T13:34:01.275Z,46.20
2022-11-27T13:37:07.057Z,47.60
2022-11-27T13:40:21.565Z,49.92
2022-11-27T13:43:29.793Z,51.93
2022-11-27T13:46:45.007Z,53.77
2022-11-27T13:49:59.779Z,53.16
2022-11-27T13:53:06.228Z,52.75
2022-11-27T13:56:10.517Z,53.27
2022-11-27T13:59:21.355Z,53.99
2022-11-27T14:02:24.784Z,54.59
2022-11-27T14:05:39.856Z,54.58
2022-11-27T14:08:52.115Z,55.20
2022-11-27T14:11:56.889Z,55.95
2022-11-27T14:15:05.752Z,56.68
2022-11-27T14:18:17.280Z,57.78
2022-11-27T14:21:26.579Z,59.31
2022-11-27T14:24:40.904Z,59.71
2022-11-27T14:27:45.691Z,60.67
2022-11-27T14:30:50.809Z,60.76
2022-11-27T14:34:14.163Z,60.52
2022-11-27T14:37:25.204Z,60.51
2022-11-27T14:40:28.937Z,60.99
2022-11-27T14:43:32.959Z,61.13
2022-11-27T14:46:37.845Z,61.22
2022-11-27T14:49:42.083Z,62.30
2022-11-27T14:52:52.543Z,62.90
2022-11-27T14:55:57.906Z,63.63
2022-11-27T14:59:03.217Z,63.65
2022-11-27T15:02:18.132Z,65.32
2022-11-27T15:05:23.344Z,65.29
2022-11-27T15:08:26.940Z,67.86
2022-11-27T15:11:54.589Z,69.50
2022-11-27T15:14:59.681Z,70.85
2022-11-27T15:18:05.488Z,70.18
2022-11-27T15:21:12.323Z,70.85
2022-11-27T15:24:30.480Z,71.21
2022-11-27T15:27:34.481Z,72.50
2022-11-27T15:30:44.999Z,73.46
2022-11-27T15:33:56.666Z,75.06
2022-11-27T15:37:01.648Z,75.03
2022-11-27T15:40:16.984Z,76.28
2022-11-27T15:43:19.668Z,76.67
2022-11-27T15:46:30.035Z,76.96
2022-11-27T15:49:32.956Z,77.48
2022-11-27T15:52:35.646Z,78.33
2022-11-27T15:55:38.399Z,79.28
2022-11-27T15:58:41.672Z,79.41
2022-11-27T16:01:45.769Z,79.56
2022-11-27T16:04:48.464Z,79.93
2022-11-27T16:07:54.925Z,79.88
2022-11-27T16:11:00.679Z,80.53
2022-11-27T16:14:03.336Z,80.59
2022-11-27T16:17:07.347Z,80.99
2022-11-27T16:20:10.888Z,81.28
2022-11-27T16:23:13.535Z,80.36
2022-11-27T16:26:16.208Z,80.38
2022-11-27T16:29:19.000Z,80.57
2022-11-27T16:32:22.971Z,81.09
2022-11-27T16:35:26.523Z,81.36
2022-11-27T16:38:29.406Z,80.97
2022-11-27T16:41:32.191Z,77.81
2022-11-27T16:44:35.107Z,77.42
2022-11-27T16:47:50.264Z,77.44
2022-11-27T16:51:02.211Z,76.29
2022-11-27T16:54:07.477Z,76.16
2022-11-27T16:57:10.220Z,76.62
2022-11-27T17:00:14.328Z,76.70
2022-11-27T17:03:20.963Z,75.75
2022-11-27T17:06:27.001Z,75.87
2022-11-27T17:09:31.235Z,75.81
2022-11-27T17:12:41.854Z,76.18
2022-11-27T17:15:45.054Z,76.26
2022-11-27T17:18:49.654Z,75.67
2022-11-27T17:21:52.365Z,75.06
2022-11-27T17:24:57.809Z,75.43
2022-11-27T17:28:09.546Z,75.39
2022-11-27T17:31:28.632Z,74.26
2022-11-27T17:34:50.640Z,74.98
2022-11-27T17:38:06.617Z,74.57
2022-11-27T17:41:16.782Z,74.70
2022-11-27T17:44:32.567Z,74.70
2022-11-27T17:47:42.858Z,74.89
2022-11-27T17:50:52.163Z,75.52
2022-11-27T17:54:02.576Z,76.30
2022-11-27T17:57:10.059Z,75.97
2022-11-27T18:00:18.874Z,75.46
2022-11-27T18:03:23.404Z,75.43
2022-11-27T18:06:29.545Z,75.90
2022-11-27T18:09:34.767Z,75.93
2022-11-27T18:12:39.728Z,75.39
2022-11-27T18:15:44.642Z,74.99
2022-11-27T18:18:50.787Z,75.21
2022-11-27T18:21:56.971Z,75.62
2022-11-27T18:25:02.024Z,74.60
2022-11-27T18:28:07.045Z,74.17
2022-11-27T18:31:13.205Z,75.31
2022-11-27T18:34:18.700Z,74.38
2022-11-27T18:37:25.852Z,75.04
2022-11-27T18:40:35.924Z,75.19
2022-11-27T18:43:41.276Z,75.74
2022-11-27T18:46:46.004Z,76.85
2022-11-27T18:49:50.509Z,73.77
2022-11-27T18:52:56.977Z,73.10
2022-11-27T18:56:07.152Z,72.26
2022-11-27T18:59:12.297Z,72.27
2022-11-27T19:02:17.571Z,71.82
2022-11-27T19:05:23.053Z,71.37
2022-11-27T19:08:30.395Z,71.05
2022-11-27T19:11:36.379Z,69.79
2022-11-27T19:14:41.676Z,68.14
2022-11-27T19:17:46.972Z,69.14
2022-11-27T19:20:51.157Z,69.24
2022-11-27T19:23:59.464Z,71.29
2022-11-27T19:27:04.437Z,72.61
2022-11-27T19:30:09.901Z,74.04
2022-11-27T19:33:14.351Z,72.59
2022-11-27T19:36:19.093Z,72.47
2022-11-27T19:39:25.442Z,72.95
2022-11-27T19:42:30.086Z,72.84
2022-11-27T19:45:36.794Z,73.38
2022-11-27T19:48:40.997Z,74.30
2022-11-27T19:51:50.080Z,75.26
2022-11-27T19:54:56.529Z,75.03
2022-11-27T19:58:02.061Z,75.50
2022-11-27T20:01:08.770Z,77.09
2022-11-27T20:04:15.949Z,77.26
2022-11-27T20:07:22.447Z,77.83
2022-11-27T20:10:29.265Z,77.57
2022-11-27T20:13:36.894Z,76.54
2022-11-27T20:16:44.127Z,75.82
2022-11-27T20:19:49.182Z,74.26
2022-11-27T20:22:54.125Z,75.03
2022-11-27T20:26:01.757Z,75.32
2022-11-27T20:29:07.399Z,74.60
2022-11-27T20:32:12.392Z,76.07
2022-11-27T20:35:18.090Z,74.40
2022-11-27T20:38:24.469Z,74.59
2022-11-27T20:41:31.971Z,74.65
2022-11-27T20:44:36.620Z,75.35
2022-11-27T20:47:41.286Z,75.82
2022-11-27T20:50:51.125Z,75.17
2022-11-27T20:53:59.709Z,75.01
2022-11-27T20:57:14.437Z,74.53
2022-11-27T21:00:21.653Z,75.43
2022-11-27T21:03:26.499Z,75.90
2022-11-27T21:06:33.842Z,75.54
2022-11-27T21:09:45.887Z,77.05
2022-11-27T21:12:53.035Z,77.56
2022-11-27T21:15:57.583Z,77.58
2022-11-27T21:19:04.156Z,77.41
2022-11-27T21:22:10.626Z,77.99
2022-11-27T21:25:15.739Z,78.68
2022-11-27T21:28:23.168Z,78.84
2022-11-27T21:31:37.057Z,80.12
2022-11-27T21:34:43.222Z,80.84
2022-11-27T21:37:53.605Z,78.31
2022-11-27T21:41:01.012Z,79.15
2022-11-27T21:44:08.869Z,78.97
2022-11-27T21:47:13.899Z,80.17
2022-11-27T21:50:18.603Z,79.83
2022-11-27T21:53:23.745Z,79.01
2022-11-27T21:56:33.782Z,78.41
2022-11-27T21:59:40.617Z,78.57
2022-11-27T22:02:46.409Z,78.68
2022-11-27T22:06:01.842Z,78.68
2022-11-27T22:09:13.387Z,79.19
2022-11-27T22:12:19.773Z,78.69
2022-11-27T22:15:25.577Z,79.17
2022-11-27T22:18:31.572Z,79.15
2022-11-27T22:21:36.136Z,78.81
2022-11-27T22:24:42.444Z,78.51
2022-11-27T22:27:47.295Z,79.27
2022-11-27T22:30:53.256Z,79.32
2022-11-27T22:33:58.596Z,79.89
2022-11-27T22:37:06.232Z,79.22
2022-11-27T22:40:11.269Z,79.55
2022-11-27T22:43:16.195Z,79.48
2022-11-27T22:46:25.446Z,79.04
2022-11-27T22:49:30.222Z,79.02
2022-11-27T22:52:34.817Z,79.39
2022-11-27T22:55:39.846Z,79.02
2022-11-27T22:58:45.136Z,80.20
2022-11-27T23:01:52.079Z,80.28
2022-11-27T23:04:56.455Z,79.54
2022-11-27T23:08:00.779Z,79.83
2022-11-27T23:11:07.453Z,79.57
2022-11-27T23:14:12.015Z,80.19
2022-11-27T23:17:18.786Z,80.69
2022-11-27T23:20:23.498Z,80.40
2022-11-27T23:23:29.273Z,80.13
2022-11-27T23:26:34.029Z,80.54
2022-11-27T23:29:38.414Z,79.86
2022-11-27T23:32:46.129Z,80.15
2022-11-27T23:35:50.836Z,79.95
2022-11-27T23:38:55.962Z,80.91
2022-11-27T23:42:00.510Z,79.49
2022-11-27T23:45:05.414Z,80.58
2022-11-27T23:48:11.938Z,80.19
2022-11-27T23:51:17.800Z,81.09
2022-11-27T23:54:22.086Z,80.89
2022-11-27T23:57:27.026Z,81.24
